sensor_id;sensor_type;location;lat;lon;timestamp;P1;durP1;ratioP1;P2;durP2;ratioP2
71042;SDS011;58696;52.134;5.500;2023-04-24T00:02:13;1.98;;;0.60;;
71042;SDS011;58696;52.134;5.500;2023-04-24T00:04:43;0.50;;;0.50;;
71042;SDS011;58696;52.134;5.500;2023-04-24T00:07:15;0.47;;;0.47;;
71042;SDS011;58696;52.134;5.500;2023-04-24T00:09:46;0.57;;;0.57;;
71042;SDS011;58696;52.134;5.500;2023-04-24T00:12:14;1.50;;;0.77;;
71042;SDS011;58696;52.134;5.500;2023-04-24T00:14:43;0.93;;;0.77;;
71042;SDS011;58696;52.134;5.500;2023-04-24T00:17:10;1.08;;;0.80;;
71042;SDS011;58696;52.134;5.500;2023-04-24T00:19:38;2.42;;;1.20;;
71042;SDS011;58696;52.134;5.500;2023-04-24T00:22:05;0.70;;;0.70;;
71042;SDS011;58696;52.134;5.500;2023-04-24T00:24:32;1.05;;;0.90;;
71042;SDS011;58696;52.134;5.500;2023-04-24T00:27:01;5.03;;;0.90;;
71042;SDS011;58696;52.134;5.500;2023-04-24T00:29:31;1.08;;;1.02;;
71042;SDS011;58696;52.134;5.500;2023-04-24T00:31:57;2.38;;;1.40;;
71042;SDS011;58696;52.134;5.500;2023-04-24T00:34:24;1.20;;;0.98;;
71042;SDS011;58696;52.134;5.500;2023-04-24T00:36:53;1.00;;;1.00;;
71042;SDS011;58696;52.134;5.500;2023-04-24T00:39:24;0.90;;;0.90;;
71042;SDS011;58696;52.134;5.500;2023-04-24T00:41:55;2.25;;;1.13;;
71042;SDS011;58696;52.134;5.500;2023-04-24T00:44:25;1.50;;;1.23;;
71042;SDS011;58696;52.134;5.500;2023-04-24T00:46:51;1.25;;;1.17;;
71042;SDS011;58696;52.134;5.500;2023-04-24T00:49:21;1.17;;;1.08;;
71042;SDS011;58696;52.134;5.500;2023-04-24T00:51:50;1.00;;;1.00;;
71042;SDS011;58696;52.134;5.500;2023-04-24T00:54:17;3.80;;;1.23;;
71042;SDS011;58696;52.134;5.500;2023-04-24T00:56:49;1.20;;;1.10;;
71042;SDS011;58696;52.134;5.500;2023-04-24T00:59:17;1.30;;;1.20;;
71042;SDS011;58696;52.134;5.500;2023-04-24T01:01:44;3.47;;;1.50;;
71042;SDS011;58696;52.134;5.500;2023-04-24T01:04:11;1.25;;;1.20;;
71042;SDS011;58696;52.134;5.500;2023-04-24T01:06:40;1.77;;;1.27;;
71042;SDS011;58696;52.134;5.500;2023-04-24T01:09:09;1.75;;;1.02;;
71042;SDS011;58696;52.134;5.500;2023-04-24T01:11:41;2.35;;;1.35;;
71042;SDS011;58696;52.134;5.500;2023-04-24T01:14:09;3.20;;;1.58;;
71042;SDS011;58696;52.134;5.500;2023-04-24T01:16:40;2.55;;;1.50;;
71042;SDS011;58696;52.134;5.500;2023-04-24T01:19:07;2.17;;;1.40;;
71042;SDS011;58696;52.134;5.500;2023-04-24T01:21:36;2.38;;;1.83;;
71042;SDS011;58696;52.134;5.500;2023-04-24T01:24:06;1.73;;;1.55;;
71042;SDS011;58696;52.134;5.500;2023-04-24T01:26:32;1.85;;;1.60;;
71042;SDS011;58696;52.134;5.500;2023-04-24T01:28:59;1.70;;;1.50;;
71042;SDS011;58696;52.134;5.500;2023-04-24T01:31:26;2.08;;;1.70;;
71042;SDS011;58696;52.134;5.500;2023-04-24T01:33:53;1.95;;;1.67;;
71042;SDS011;58696;52.134;5.500;2023-04-24T01:36:20;2.42;;;1.90;;
71042;SDS011;58696;52.134;5.500;2023-04-24T01:38:50;2.78;;;1.92;;
71042;SDS011;58696;52.134;5.500;2023-04-24T01:41:17;2.42;;;2.03;;
71042;SDS011;58696;52.134;5.500;2023-04-24T01:43:46;2.00;;;1.73;;
71042;SDS011;58696;52.134;5.500;2023-04-24T01:46:14;1.95;;;1.85;;
71042;SDS011;58696;52.134;5.500;2023-04-24T01:48:41;2.25;;;1.88;;
71042;SDS011;58696;52.134;5.500;2023-04-24T01:51:08;2.45;;;2.25;;
71042;SDS011;58696;52.134;5.500;2023-04-24T01:53:34;2.28;;;2.08;;
71042;SDS011;58696;52.134;5.500;2023-04-24T01:56:08;2.58;;;2.22;;
71042;SDS011;58696;52.134;5.500;2023-04-24T01:58:35;4.28;;;2.70;;
71042;SDS011;58696;52.134;5.500;2023-04-24T02:01:02;3.55;;;2.65;;
71042;SDS011;58696;52.134;5.500;2023-04-24T02:03:34;2.90;;;2.13;;
71042;SDS011;58696;52.134;5.500;2023-04-24T02:06:01;4.05;;;2.38;;
71042;SDS011;58696;52.134;5.500;2023-04-24T02:08:30;2.50;;;2.30;;
71042;SDS011;58696;52.134;5.500;2023-04-24T02:10:59;2.50;;;2.20;;
71042;SDS011;58696;52.134;5.500;2023-04-24T02:13:31;2.75;;;2.40;;
71042;SDS011;58696;52.134;5.500;2023-04-24T02:16:00;3.67;;;2.30;;
71042;SDS011;58696;52.134;5.500;2023-04-24T02:18:32;2.15;;;1.98;;
71042;SDS011;58696;52.134;5.500;2023-04-24T02:20:58;2.00;;;1.88;;
71042;SDS011;58696;52.134;5.500;2023-04-24T02:23:29;2.08;;;1.55;;
71042;SDS011;58696;52.134;5.500;2023-04-24T02:25:59;2.35;;;1.65;;
71042;SDS011;58696;52.134;5.500;2023-04-24T02:28:25;2.28;;;1.50;;
71042;SDS011;58696;52.134;5.500;2023-04-24T02:30:54;1.70;;;1.60;;
71042;SDS011;58696;52.134;5.500;2023-04-24T02:33:23;2.33;;;2.00;;
71042;SDS011;58696;52.134;5.500;2023-04-24T02:35:49;2.20;;;1.63;;
71042;SDS011;58696;52.134;5.500;2023-04-24T02:38:18;1.98;;;1.88;;
71042;SDS011;58696;52.134;5.500;2023-04-24T02:40:47;2.25;;;2.10;;
71042;SDS011;58696;52.134;5.500;2023-04-24T02:43:14;2.25;;;2.13;;
71042;SDS011;58696;52.134;5.500;2023-04-24T02:45:40;1.98;;;1.80;;
71042;SDS011;58696;52.134;5.500;2023-04-24T02:48:07;2.30;;;2.10;;
71042;SDS011;58696;52.134;5.500;2023-04-24T02:50:33;2.42;;;2.22;;
71042;SDS011;58696;52.134;5.500;2023-04-24T02:53:00;2.63;;;2.20;;
71042;SDS011;58696;52.134;5.500;2023-04-24T02:55:29;4.00;;;2.38;;
71042;SDS011;58696;52.134;5.500;2023-04-24T02:57:56;2.58;;;2.38;;
71042;SDS011;58696;52.134;5.500;2023-04-24T03:00:22;2.70;;;2.50;;
71042;SDS011;58696;52.134;5.500;2023-04-24T03:02:51;2.85;;;2.40;;
71042;SDS011;58696;52.134;5.500;2023-04-24T03:05:18;2.70;;;2.50;;
71042;SDS011;58696;52.134;5.500;2023-04-24T03:07:52;2.90;;;2.58;;
71042;SDS011;58696;52.134;5.500;2023-04-24T03:10:20;2.70;;;2.50;;
71042;SDS011;58696;52.134;5.500;2023-04-24T03:12:51;2.72;;;2.30;;
71042;SDS011;58696;52.134;5.500;2023-04-24T03:15:18;2.63;;;2.42;;
71042;SDS011;58696;52.134;5.500;2023-04-24T03:17:44;3.83;;;2.70;;
71042;SDS011;58696;52.134;5.500;2023-04-24T03:20:11;2.85;;;2.63;;
71042;SDS011;58696;52.134;5.500;2023-04-24T03:22:37;3.58;;;2.33;;
71042;SDS011;58696;52.134;5.500;2023-04-24T03:25:04;2.53;;;2.33;;
71042;SDS011;58696;52.134;5.500;2023-04-24T03:27:35;2.28;;;2.08;;
71042;SDS011;58696;52.134;5.500;2023-04-24T03:30:08;2.88;;;2.58;;
71042;SDS011;58696;52.134;5.500;2023-04-24T03:32:34;2.45;;;2.25;;
71042;SDS011;58696;52.134;5.500;2023-04-24T03:35:01;2.15;;;1.95;;
71042;SDS011;58696;52.134;5.500;2023-04-24T03:37:28;3.30;;;2.60;;
71042;SDS011;58696;52.134;5.500;2023-04-24T03:39:54;2.83;;;2.60;;
71042;SDS011;58696;52.134;5.500;2023-04-24T03:42:24;2.55;;;2.35;;
71042;SDS011;58696;52.134;5.500;2023-04-24T03:44:55;3.17;;;2.88;;
71042;SDS011;58696;52.134;5.500;2023-04-24T03:47:24;2.85;;;2.60;;
71042;SDS011;58696;52.134;5.500;2023-04-24T03:49:53;5.03;;;2.55;;
71042;SDS011;58696;52.134;5.500;2023-04-24T03:52:21;2.72;;;2.53;;
71042;SDS011;58696;52.134;5.500;2023-04-24T03:54:48;3.15;;;2.85;;
71042;SDS011;58696;52.134;5.500;2023-04-24T03:57:19;4.25;;;3.20;;
71042;SDS011;58696;52.134;5.500;2023-04-24T03:59:48;5.05;;;3.15;;
71042;SDS011;58696;52.134;5.500;2023-04-24T04:02:17;3.35;;;3.05;;
71042;SDS011;58696;52.134;5.500;2023-04-24T04:04:44;3.38;;;2.80;;
71042;SDS011;58696;52.134;5.500;2023-04-24T04:07:13;5.07;;;3.22;;
71042;SDS011;58696;52.134;5.500;2023-04-24T04:09:40;3.40;;;3.10;;
71042;SDS011;58696;52.134;5.500;2023-04-24T04:12:07;4.20;;;2.90;;
71042;SDS011;58696;52.134;5.500;2023-04-24T04:14:41;4.28;;;3.05;;
71042;SDS011;58696;52.134;5.500;2023-04-24T04:17:07;3.38;;;3.08;;
71042;SDS011;58696;52.134;5.500;2023-04-24T04:19:36;3.92;;;2.85;;
71042;SDS011;58696;52.134;5.500;2023-04-24T04:22:06;3.40;;;3.10;;
71042;SDS011;58696;52.134;5.500;2023-04-24T04:24:34;3.10;;;2.90;;
71042;SDS011;58696;52.134;5.500;2023-04-24T04:27:04;3.67;;;3.08;;
71042;SDS011;58696;52.134;5.500;2023-04-24T04:29:31;4.63;;;3.10;;
71042;SDS011;58696;52.134;5.500;2023-04-24T04:31:58;5.72;;;2.95;;
71042;SDS011;58696;52.134;5.500;2023-04-24T04:34:25;3.53;;;3.22;;
71042;SDS011;58696;52.134;5.500;2023-04-24T04:36:57;3.67;;;2.90;;
71042;SDS011;58696;52.134;5.500;2023-04-24T04:39:27;3.33;;;3.03;;
71042;SDS011;58696;52.134;5.500;2023-04-24T04:41:56;2.95;;;2.67;;
71042;SDS011;58696;52.134;5.500;2023-04-24T04:44:24;2.70;;;2.50;;
71042;SDS011;58696;52.134;5.500;2023-04-24T04:46:55;3.75;;;2.80;;
71042;SDS011;58696;52.134;5.500;2023-04-24T04:49:22;3.25;;;2.42;;
71042;SDS011;58696;52.134;5.500;2023-04-24T04:51:52;5.57;;;2.63;;
71042;SDS011;58696;52.134;5.500;2023-04-24T04:54:19;2.38;;;2.10;;
71042;SDS011;58696;52.134;5.500;2023-04-24T04:56:45;2.83;;;2.30;;
71042;SDS011;58696;52.134;5.500;2023-04-24T04:59:12;2.17;;;1.98;;
71042;SDS011;58696;52.134;5.500;2023-04-24T05:01:43;2.42;;;2.20;;
71042;SDS011;58696;52.134;5.500;2023-04-24T05:04:10;2.20;;;2.00;;
71042;SDS011;58696;52.134;5.500;2023-04-24T05:06:39;2.38;;;2.17;;
71042;SDS011;58696;52.134;5.500;2023-04-24T05:09:06;2.50;;;2.30;;
71042;SDS011;58696;52.134;5.500;2023-04-24T05:11:33;2.70;;;2.50;;
71042;SDS011;58696;52.134;5.500;2023-04-24T05:14:02;2.40;;;2.20;;
71042;SDS011;58696;52.134;5.500;2023-04-24T05:16:28;3.45;;;2.80;;
71042;SDS011;58696;52.134;5.500;2023-04-24T05:18:56;2.92;;;2.67;;
71042;SDS011;58696;52.134;5.500;2023-04-24T05:21:23;6.95;;;2.55;;
71042;SDS011;58696;52.134;5.500;2023-04-24T05:23:52;2.78;;;2.40;;
71042;SDS011;58696;52.134;5.500;2023-04-24T05:26:24;3.13;;;2.63;;
71042;SDS011;58696;52.134;5.500;2023-04-24T05:28:50;3.28;;;2.33;;
71042;SDS011;58696;52.134;5.500;2023-04-24T05:31:17;2.58;;;2.38;;
71042;SDS011;58696;52.134;5.500;2023-04-24T05:33:46;5.53;;;2.30;;
71042;SDS011;58696;52.134;5.500;2023-04-24T05:36:12;2.65;;;2.45;;
71042;SDS011;58696;52.134;5.500;2023-04-24T05:38:39;2.42;;;2.22;;
71042;SDS011;58696;52.134;5.500;2023-04-24T05:41:08;6.10;;;2.47;;
71042;SDS011;58696;52.134;5.500;2023-04-24T05:43:37;3.17;;;2.60;;
71042;SDS011;58696;52.134;5.500;2023-04-24T05:46:04;3.03;;;2.53;;
71042;SDS011;58696;52.134;5.500;2023-04-24T05:48:33;2.92;;;2.70;;
71042;SDS011;58696;52.134;5.500;2023-04-24T05:51:02;3.63;;;2.38;;
71042;SDS011;58696;52.134;5.500;2023-04-24T05:53:31;2.72;;;2.50;;
71042;SDS011;58696;52.134;5.500;2023-04-24T05:55:57;2.50;;;2.33;;
71042;SDS011;58696;52.134;5.500;2023-04-24T05:58:24;3.55;;;2.40;;
71042;SDS011;58696;52.134;5.500;2023-04-24T06:00:50;2.97;;;2.35;;
71042;SDS011;58696;52.134;5.500;2023-04-24T06:03:17;3.10;;;2.80;;
71042;SDS011;58696;52.134;5.500;2023-04-24T06:05:51;3.08;;;2.40;;
71042;SDS011;58696;52.134;5.500;2023-04-24T06:08:22;4.30;;;2.85;;
71042;SDS011;58696;52.134;5.500;2023-04-24T06:10:54;2.70;;;2.45;;
71042;SDS011;58696;52.134;5.500;2023-04-24T06:13:23;3.55;;;2.85;;
71042;SDS011;58696;52.134;5.500;2023-04-24T06:15:51;4.18;;;2.72;;
71042;SDS011;58696;52.134;5.500;2023-04-24T06:20:45;1.80;;;1.60;;
71042;SDS011;58696;52.134;5.500;2023-04-24T06:23:14;3.17;;;1.83;;
71042;SDS011;58696;52.134;5.500;2023-04-24T06:25:41;1.70;;;1.60;;
71042;SDS011;58696;52.134;5.500;2023-04-24T06:28:07;1.80;;;1.60;;
71042;SDS011;58696;52.134;5.500;2023-04-24T06:30:34;2.88;;;1.63;;
71042;SDS011;58696;52.134;5.500;2023-04-24T06:33:01;1.30;;;1.20;;
71042;SDS011;58696;52.134;5.500;2023-04-24T06:35:44;2.45;;;1.25;;
71042;SDS011;58696;52.134;5.500;2023-04-24T06:38:15;1.42;;;1.08;;
71042;SDS011;58696;52.134;5.500;2023-04-24T06:40:42;1.27;;;0.80;;
71042;SDS011;58696;52.134;5.500;2023-04-24T06:43:09;0.85;;;0.60;;
71042;SDS011;58696;52.134;5.500;2023-04-24T06:45:37;0.70;;;0.70;;
71042;SDS011;58696;52.134;5.500;2023-04-24T06:48:06;0.82;;;0.77;;
71042;SDS011;58696;52.134;5.500;2023-04-24T06:50:32;2.75;;;1.50;;
71042;SDS011;58696;52.134;5.500;2023-04-24T06:52:59;3.03;;;2.15;;
71042;SDS011;58696;52.134;5.500;2023-04-24T06:55:28;4.18;;;3.22;;
71042;SDS011;58696;52.134;5.500;2023-04-24T06:57:59;8.85;;;4.40;;
71042;SDS011;58696;52.134;5.500;2023-04-24T07:00:28;9.25;;;3.88;;
71042;SDS011;58696;52.134;5.500;2023-04-24T07:02:56;8.57;;;4.70;;
71042;SDS011;58696;52.134;5.500;2023-04-24T07:05:25;6.43;;;4.43;;
71042;SDS011;58696;52.134;5.500;2023-04-24T07:07:54;6.35;;;4.38;;
71042;SDS011;58696;52.134;5.500;2023-04-24T07:10:21;10.35;;;4.60;;
71042;SDS011;58696;52.134;5.500;2023-04-24T07:12:47;6.82;;;4.95;;
71042;SDS011;58696;52.134;5.500;2023-04-24T07:15:16;8.95;;;5.65;;
71042;SDS011;58696;52.134;5.500;2023-04-24T07:17:46;10.85;;;5.55;;
71042;SDS011;58696;52.134;5.500;2023-04-24T07:20:12;8.27;;;5.13;;
71042;SDS011;58696;52.134;5.500;2023-04-24T07:22:40;7.40;;;4.97;;
71042;SDS011;58696;52.134;5.500;2023-04-24T07:25:07;9.45;;;5.53;;
71042;SDS011;58696;52.134;5.500;2023-04-24T07:27:34;6.87;;;4.93;;
71042;SDS011;58696;52.134;5.500;2023-04-24T07:30:02;11.07;;;5.28;;
71042;SDS011;58696;52.134;5.500;2023-04-24T07:32:33;9.07;;;4.85;;
71042;SDS011;58696;52.134;5.500;2023-04-24T07:35:02;8.82;;;4.60;;
71042;SDS011;58696;52.134;5.500;2023-04-24T07:37:31;10.43;;;4.65;;
71042;SDS011;58696;52.134;5.500;2023-04-24T07:40:00;6.60;;;4.70;;
71042;SDS011;58696;52.134;5.500;2023-04-24T07:42:29;8.98;;;4.50;;
71042;SDS011;58696;52.134;5.500;2023-04-24T07:45:03;10.68;;;5.15;;
71042;SDS011;58696;52.134;5.500;2023-04-24T07:47:34;6.72;;;4.22;;
71042;SDS011;58696;52.134;5.500;2023-04-24T07:50:01;8.80;;;4.70;;
71042;SDS011;58696;52.134;5.500;2023-04-24T07:52:27;10.50;;;4.97;;
71042;SDS011;58696;52.134;5.500;2023-04-24T07:54:54;6.35;;;4.28;;
71042;SDS011;58696;52.134;5.500;2023-04-24T07:57:26;10.48;;;4.22;;
71042;SDS011;58696;52.134;5.500;2023-04-24T07:59:53;8.82;;;5.03;;
71042;SDS011;58696;52.134;5.500;2023-04-24T08:02:19;12.27;;;4.65;;
71042;SDS011;58696;52.134;5.500;2023-04-24T08:04:53;11.57;;;4.80;;
71042;SDS011;58696;52.134;5.500;2023-04-24T08:07:20;9.48;;;4.63;;
71042;SDS011;58696;52.134;5.500;2023-04-24T08:09:47;18.35;;;4.97;;
71042;SDS011;58696;52.134;5.500;2023-04-24T08:12:16;8.25;;;4.03;;
71042;SDS011;58696;52.134;5.500;2023-04-24T08:14:43;6.72;;;4.55;;
71042;SDS011;58696;52.134;5.500;2023-04-24T08:17:10;9.65;;;4.20;;
71042;SDS011;58696;52.134;5.500;2023-04-24T08:19:39;5.88;;;4.30;;
71042;SDS011;58696;52.134;5.500;2023-04-24T08:22:10;5.68;;;4.10;;
71042;SDS011;58696;52.134;5.500;2023-04-24T08:24:36;10.95;;;3.75;;
71042;SDS011;58696;52.134;5.500;2023-04-24T08:27:05;8.70;;;3.28;;
71042;SDS011;58696;52.134;5.500;2023-04-24T08:29:32;11.40;;;3.72;;
71042;SDS011;58696;52.134;5.500;2023-04-24T08:31:58;11.25;;;3.20;;
71042;SDS011;58696;52.134;5.500;2023-04-24T08:34:25;8.93;;;2.97;;
71042;SDS011;58696;52.134;5.500;2023-04-24T08:36:54;15.07;;;3.63;;
71042;SDS011;58696;52.134;5.500;2023-04-24T08:39:22;6.22;;;2.47;;
71042;SDS011;58696;52.134;5.500;2023-04-24T08:41:52;8.57;;;3.05;;
71042;SDS011;58696;52.134;5.500;2023-04-24T08:44:21;6.13;;;2.53;;
71042;SDS011;58696;52.134;5.500;2023-04-24T08:46:53;4.82;;;2.25;;
71042;SDS011;58696;52.134;5.500;2023-04-24T08:49:22;11.15;;;2.63;;
71042;SDS011;58696;52.134;5.500;2023-04-24T08:51:52;8.00;;;2.75;;
71042;SDS011;58696;52.134;5.500;2023-04-24T08:54:21;8.18;;;2.53;;
71042;SDS011;58696;52.134;5.500;2023-04-24T08:56:50;10.02;;;2.83;;
71042;SDS011;58696;52.134;5.500;2023-04-24T08:59:24;10.20;;;3.28;;
71042;SDS011;58696;52.134;5.500;2023-04-24T09:01:56;7.40;;;2.55;;
71042;SDS011;58696;52.134;5.500;2023-04-24T09:04:23;9.70;;;3.25;;
71042;SDS011;58696;52.134;5.500;2023-04-24T09:06:55;8.40;;;1.90;;
71042;SDS011;58696;52.134;5.500;2023-04-24T09:09:26;7.90;;;2.28;;
71042;SDS011;58696;52.134;5.500;2023-04-24T09:11:58;5.15;;;1.77;;
71042;SDS011;58696;52.134;5.500;2023-04-24T09:14:26;6.82;;;2.15;;
71042;SDS011;58696;52.134;5.500;2023-04-24T09:16:57;6.30;;;1.67;;
71042;SDS011;58696;52.134;5.500;2023-04-24T09:19:24;12.73;;;2.40;;
71042;SDS011;58696;52.134;5.500;2023-04-24T09:21:50;11.80;;;1.88;;
71042;SDS011;58696;52.134;5.500;2023-04-24T09:24:20;9.40;;;2.50;;
71042;SDS011;58696;52.134;5.500;2023-04-24T09:26:57;11.13;;;2.40;;
71042;SDS011;58696;52.134;5.500;2023-04-24T09:29:25;7.82;;;2.13;;
71042;SDS011;58696;52.134;5.500;2023-04-24T09:31:53;7.68;;;1.63;;
71042;SDS011;58696;52.134;5.500;2023-04-24T09:34:26;7.05;;;2.00;;
71042;SDS011;58696;52.134;5.500;2023-04-24T09:36:53;6.22;;;1.70;;
71042;SDS011;58696;52.134;5.500;2023-04-24T09:39:20;15.68;;;1.98;;
71042;SDS011;58696;52.134;5.500;2023-04-24T09:41:48;8.77;;;2.03;;
71042;SDS011;58696;52.134;5.500;2023-04-24T09:44:19;6.63;;;1.73;;
71042;SDS011;58696;52.134;5.500;2023-04-24T09:51:49;10.15;;;2.22;;
71042;SDS011;58696;52.134;5.500;2023-04-24T09:54:20;8.43;;;1.88;;
71042;SDS011;58696;52.134;5.500;2023-04-24T09:56:49;12.60;;;2.28;;
71042;SDS011;58696;52.134;5.500;2023-04-24T09:59:19;10.00;;;2.05;;
71042;SDS011;58696;52.134;5.500;2023-04-24T10:01:48;3.97;;;1.60;;
71042;SDS011;58696;52.134;5.500;2023-04-24T10:04:16;8.57;;;1.67;;
71042;SDS011;58696;52.134;5.500;2023-04-24T10:06:44;9.88;;;2.45;;
71042;SDS011;58696;52.134;5.500;2023-04-24T10:09:14;5.28;;;1.48;;
71042;SDS011;58696;52.134;5.500;2023-04-24T10:11:44;6.55;;;1.40;;
71042;SDS011;58696;52.134;5.500;2023-04-24T10:14:16;7.97;;;1.70;;
71042;SDS011;58696;52.134;5.500;2023-04-24T10:16:47;8.20;;;2.47;;
71042;SDS011;58696;52.134;5.500;2023-04-24T10:19:15;6.80;;;1.67;;
71042;SDS011;58696;52.134;5.500;2023-04-24T10:21:44;7.60;;;1.63;;
71042;SDS011;58696;52.134;5.500;2023-04-24T10:24:16;5.40;;;1.88;;
71042;SDS011;58696;52.134;5.500;2023-04-24T10:26:44;4.13;;;1.45;;
71042;SDS011;58696;52.134;5.500;2023-04-24T10:29:15;5.45;;;1.75;;
71042;SDS011;58696;52.134;5.500;2023-04-24T10:31:43;7.97;;;1.40;;
71042;SDS011;58696;52.134;5.500;2023-04-24T10:34:14;4.05;;;1.40;;
71042;SDS011;58696;52.134;5.500;2023-04-24T10:36:53;3.55;;;1.40;;
71042;SDS011;58696;52.134;5.500;2023-04-24T10:39:23;7.75;;;1.63;;
71042;SDS011;58696;52.134;5.500;2023-04-24T10:41:54;4.30;;;1.10;;
71042;SDS011;58696;52.134;5.500;2023-04-24T10:44:27;2.60;;;0.90;;
71042;SDS011;58696;52.134;5.500;2023-04-24T10:47:05;1.38;;;0.38;;
71042;SDS011;58696;52.134;5.500;2023-04-24T10:49:34;4.05;;;0.90;;
71042;SDS011;58696;52.134;5.500;2023-04-24T10:52:01;1.50;;;0.80;;
71042;SDS011;58696;52.134;5.500;2023-04-24T10:59:48;4.60;;;0.93;;
71042;SDS011;58696;52.134;5.500;2023-04-24T11:02:36;1.95;;;0.70;;
71042;SDS011;58696;52.134;5.500;2023-04-24T11:05:06;2.83;;;1.00;;
71042;SDS011;58696;52.134;5.500;2023-04-24T11:10:54;2.38;;;0.80;;
71042;SDS011;58696;52.134;5.500;2023-04-24T11:16:21;0.95;;;0.80;;
71042;SDS011;58696;52.134;5.500;2023-04-24T11:19:17;2.17;;;0.70;;
71042;SDS011;58696;52.134;5.500;2023-04-24T11:22:13;6.40;;;1.23;;
71042;SDS011;58696;52.134;5.500;2023-04-24T11:27:18;10.48;;;1.13;;
71042;SDS011;58696;52.134;5.500;2023-04-24T11:34:45;5.07;;;1.05;;
71042;SDS011;58696;52.134;5.500;2023-04-24T11:37:15;3.38;;;0.60;;
71042;SDS011;58696;52.134;5.500;2023-04-24T11:39:46;2.13;;;0.80;;
71042;SDS011;58696;52.134;5.500;2023-04-24T11:42:16;1.85;;;0.65;;
71042;SDS011;58696;52.134;5.500;2023-04-24T11:44:43;2.83;;;0.90;;
71042;SDS011;58696;52.134;5.500;2023-04-24T11:47:13;5.93;;;1.55;;
71042;SDS011;58696;52.134;5.500;2023-04-24T11:49:40;2.38;;;0.90;;
71042;SDS011;58696;52.134;5.500;2023-04-24T11:52:09;4.50;;;1.17;;
71042;SDS011;58696;52.134;5.500;2023-04-24T11:54:38;7.43;;;1.02;;
71042;SDS011;58696;52.134;5.500;2023-04-24T11:57:18;3.25;;;0.88;;
71042;SDS011;58696;52.134;5.500;2023-04-24T11:59:48;5.28;;;0.80;;
71042;SDS011;58696;52.134;5.500;2023-04-24T12:04:56;3.05;;;0.63;;
71042;SDS011;58696;52.134;5.500;2023-04-24T12:07:23;6.43;;;0.70;;
71042;SDS011;58696;52.134;5.500;2023-04-24T12:09:57;1.08;;;0.40;;
71042;SDS011;58696;52.134;5.500;2023-04-24T12:12:29;1.17;;;0.30;;
71042;SDS011;58696;52.134;5.500;2023-04-24T12:14:56;2.53;;;0.60;;
71042;SDS011;58696;52.134;5.500;2023-04-24T12:17:25;1.42;;;0.77;;
71042;SDS011;58696;52.134;5.500;2023-04-24T12:20:04;2.47;;;0.60;;
71042;SDS011;58696;52.134;5.500;2023-04-24T12:25:21;2.67;;;0.80;;
71042;SDS011;58696;52.134;5.500;2023-04-24T12:27:53;4.55;;;0.82;;
71042;SDS011;58696;52.134;5.500;2023-04-24T12:30:26;6.20;;;1.50;;
71042;SDS011;58696;52.134;5.500;2023-04-24T12:32:56;3.70;;;1.20;;
71042;SDS011;58696;52.134;5.500;2023-04-24T12:35:27;2.92;;;0.73;;
71042;SDS011;58696;52.134;5.500;2023-04-24T12:40:21;6.22;;;0.90;;
71042;SDS011;58696;52.134;5.500;2023-04-24T12:42:51;2.33;;;0.95;;
71042;SDS011;58696;52.134;5.500;2023-04-24T12:45:25;6.53;;;1.10;;
71042;SDS011;58696;52.134;5.500;2023-04-24T12:47:55;4.68;;;1.52;;
71042;SDS011;58696;52.134;5.500;2023-04-24T12:50:21;3.58;;;1.10;;
71042;SDS011;58696;52.134;5.500;2023-04-24T12:52:48;4.85;;;0.93;;
71042;SDS011;58696;52.134;5.500;2023-04-24T12:55:17;3.67;;;1.10;;
71042;SDS011;58696;52.134;5.500;2023-04-24T12:57:43;3.60;;;1.13;;
71042;SDS011;58696;52.134;5.500;2023-04-24T13:00:12;2.38;;;1.17;;
71042;SDS011;58696;52.134;5.500;2023-04-24T13:02:45;5.03;;;1.23;;
71042;SDS011;58696;52.134;5.500;2023-04-24T13:05:14;9.40;;;1.73;;
71042;SDS011;58696;52.134;5.500;2023-04-24T13:07:43;8.70;;;1.33;;
71042;SDS011;58696;52.134;5.500;2023-04-24T13:10:12;7.75;;;1.83;;
71042;SDS011;58696;52.134;5.500;2023-04-24T13:12:42;5.57;;;1.80;;
71042;SDS011;58696;52.134;5.500;2023-04-24T13:15:12;10.95;;;2.83;;
71042;SDS011;58696;52.134;5.500;2023-04-24T13:17:41;4.47;;;1.55;;
71042;SDS011;58696;52.134;5.500;2023-04-24T13:20:08;8.25;;;1.45;;
71042;SDS011;58696;52.134;5.500;2023-04-24T13:22:39;9.88;;;1.92;;
71042;SDS011;58696;52.134;5.500;2023-04-24T13:25:08;6.78;;;1.90;;
71042;SDS011;58696;52.134;5.500;2023-04-24T13:27:35;10.13;;;1.70;;
71042;SDS011;58696;52.134;5.500;2023-04-24T13:30:06;6.47;;;1.95;;
71042;SDS011;58696;52.134;5.500;2023-04-24T13:32:39;10.75;;;2.13;;
71042;SDS011;58696;52.134;5.500;2023-04-24T13:35:08;10.02;;;1.98;;
71042;SDS011;58696;52.134;5.500;2023-04-24T13:37:35;11.75;;;2.72;;
71042;SDS011;58696;52.134;5.500;2023-04-24T13:40:01;8.93;;;2.60;;
71042;SDS011;58696;52.134;5.500;2023-04-24T13:42:28;12.77;;;2.78;;
71042;SDS011;58696;52.134;5.500;2023-04-24T13:44:56;16.58;;;3.10;;
71042;SDS011;58696;52.134;5.500;2023-04-24T13:47:23;7.65;;;1.98;;
71042;SDS011;58696;52.134;5.500;2023-04-24T13:49:50;8.88;;;2.10;;
71042;SDS011;58696;52.134;5.500;2023-04-24T13:52:18;4.57;;;1.85;;
71042;SDS011;58696;52.134;5.500;2023-04-24T13:54:45;13.18;;;2.15;;
71042;SDS011;58696;52.134;5.500;2023-04-24T13:57:17;4.70;;;2.08;;
71042;SDS011;58696;52.134;5.500;2023-04-24T13:59:43;6.20;;;2.00;;
71042;SDS011;58696;52.134;5.500;2023-04-24T14:02:14;5.93;;;2.10;;
71042;SDS011;58696;52.134;5.500;2023-04-24T14:04:41;9.00;;;2.30;;
71042;SDS011;58696;52.134;5.500;2023-04-24T14:07:10;9.25;;;2.22;;
71042;SDS011;58696;52.134;5.500;2023-04-24T14:09:37;5.93;;;1.92;;
71042;SDS011;58696;52.134;5.500;2023-04-24T14:12:05;8.45;;;2.63;;
71042;SDS011;58696;52.134;5.500;2023-04-24T14:14:33;6.88;;;2.40;;
71042;SDS011;58696;52.134;5.500;2023-04-24T14:16:59;11.68;;;2.60;;
71042;SDS011;58696;52.134;5.500;2023-04-24T14:19:26;9.25;;;2.40;;
71042;SDS011;58696;52.134;5.500;2023-04-24T14:21:52;9.30;;;2.30;;
71042;SDS011;58696;52.134;5.500;2023-04-24T14:24:21;6.47;;;2.30;;
71042;SDS011;58696;52.134;5.500;2023-04-24T14:26:48;7.22;;;2.42;;
71042;SDS011;58696;52.134;5.500;2023-04-24T14:29:17;8.13;;;2.28;;
71042;SDS011;58696;52.134;5.500;2023-04-24T14:31:43;9.45;;;2.65;;
71042;SDS011;58696;52.134;5.500;2023-04-24T14:34:10;8.20;;;2.45;;
71042;SDS011;58696;52.134;5.500;2023-04-24T14:36:42;13.85;;;2.38;;
71042;SDS011;58696;52.134;5.500;2023-04-24T14:39:13;5.30;;;1.77;;
71042;SDS011;58696;52.134;5.500;2023-04-24T14:41:42;5.63;;;1.85;;
71042;SDS011;58696;52.134;5.500;2023-04-24T14:44:08;9.07;;;2.75;;
71042;SDS011;58696;52.134;5.500;2023-04-24T14:46:35;11.00;;;2.17;;
71042;SDS011;58696;52.134;5.500;2023-04-24T14:49:02;7.63;;;2.40;;
71042;SDS011;58696;52.134;5.500;2023-04-24T14:51:31;9.32;;;2.50;;
71042;SDS011;58696;52.134;5.500;2023-04-24T14:53:57;8.43;;;2.85;;
71042;SDS011;58696;52.134;5.500;2023-04-24T14:56:24;7.15;;;2.63;;
71042;SDS011;58696;52.134;5.500;2023-04-24T14:58:53;9.05;;;2.00;;
71042;SDS011;58696;52.134;5.500;2023-04-24T15:01:19;6.72;;;2.05;;
71042;SDS011;58696;52.134;5.500;2023-04-24T15:03:48;10.20;;;2.72;;
71042;SDS011;58696;52.134;5.500;2023-04-24T15:06:18;8.67;;;2.30;;
71042;SDS011;58696;52.134;5.500;2023-04-24T15:08:44;6.90;;;1.88;;
71042;SDS011;58696;52.134;5.500;2023-04-24T15:11:17;10.52;;;2.60;;
71042;SDS011;58696;52.134;5.500;2023-04-24T15:13:43;13.57;;;2.40;;
71042;SDS011;58696;52.134;5.500;2023-04-24T15:16:16;9.65;;;2.20;;
71042;SDS011;58696;52.134;5.500;2023-04-24T15:18:47;8.52;;;2.63;;
71042;SDS011;58696;52.134;5.500;2023-04-24T15:21:16;7.10;;;2.25;;
71042;SDS011;58696;52.134;5.500;2023-04-24T15:23:45;11.20;;;2.22;;
71042;SDS011;58696;52.134;5.500;2023-04-24T15:26:14;11.13;;;2.10;;
71042;SDS011;58696;52.134;5.500;2023-04-24T15:28:43;4.95;;;2.15;;
71042;SDS011;58696;52.134;5.500;2023-04-24T15:31:15;10.10;;;2.60;;